sensor_id;sensor_type;location;lat;lon;timestamp;temperature;humidity
39677;DHT22;27789;50.840;4.386;2024-02-21T00:00:38;10.00;99.90
39677;DHT22;27789;50.840;4.386;2024-02-21T00:03:05;10.00;99.90
39677;DHT22;27789;50.840;4.386;2024-02-21T00:05:31;9.90;99.90
39677;DHT22;27789;50.840;4.386;2024-02-21T00:07:58;10.00;99.90
39677;DHT22;27789;50.840;4.386;2024-02-21T00:10:24;10.00;99.90
39677;DHT22;27789;50.840;4.386;2024-02-21T00:12:50;10.10;99.90
39677;DHT22;27789;50.840;4.386;2024-02-21T00:15:15;10.10;99.90
39677;DHT22;27789;50.840;4.386;2024-02-21T00:17:41;10.10;99.90
39677;DHT22;27789;50.840;4.386;2024-02-21T00:20:07;10.10;99.90
39677;DHT22;27789;50.840;4.386;2024-02-21T00:22:32;10.00;99.90
39677;DHT22;27789;50.840;4.386;2024-02-21T00:24:59;10.00;99.90
39677;DHT22;27789;50.840;4.386;2024-02-21T00:27:24;10.10;99.90
39677;DHT22;27789;50.840;4.386;2024-02-21T00:29:50;10.10;99.90
39677;DHT22;27789;50.840;4.386;2024-02-21T00:32:15;10.10;99.90
39677;DHT22;27789;50.840;4.386;2024-02-21T00:34:41;10.00;99.90
39677;DHT22;27789;50.840;4.386;2024-02-21T00:37:06;10.00;99.90
39677;DHT22;27789;50.840;4.386;2024-02-21T00:39:32;10.00;99.90
39677;DHT22;27789;50.840;4.386;2024-02-21T00:41:57;10.00;99.90
39677;DHT22;27789;50.840;4.386;2024-02-21T00:44:23;10.00;99.90
39677;DHT22;27789;50.840;4.386;2024-02-21T00:46:48;10.00;99.90
39677;DHT22;27789;50.840;4.386;2024-02-21T00:49:13;10.10;99.90
39677;DHT22;27789;50.840;4.386;2024-02-21T00:51:39;10.10;99.90
39677;DHT22;27789;50.840;4.386;2024-02-21T00:54:04;10.10;99.90
39677;DHT22;27789;50.840;4.386;2024-02-21T00:56:31;10.10;99.90
39677;DHT22;27789;50.840;4.386;2024-02-21T00:58:56;10.10;99.90
39677;DHT22;27789;50.840;4.386;2024-02-21T01:01:23;10.10;99.90
39677;DHT22;27789;50.840;4.386;2024-02-21T01:03:49;10.10;99.90
39677;DHT22;27789;50.840;4.386;2024-02-21T01:06:14;10.00;99.90
39677;DHT22;27789;50.840;4.386;2024-02-21T01:08:40;10.00;99.90
39677;DHT22;27789;50.840;4.386;2024-02-21T01:11:05;10.00;99.90
39677;DHT22;27789;50.840;4.386;2024-02-21T01:13:31;10.00;99.90
39677;DHT22;27789;50.840;4.386;2024-02-21T01:15:56;10.00;99.90
39677;DHT22;27789;50.840;4.386;2024-02-21T01:18:22;10.00;99.90
39677;DHT22;27789;50.840;4.386;2024-02-21T01:20:47;9.90;99.90
39677;DHT22;27789;50.840;4.386;2024-02-21T01:23:13;9.90;99.90
39677;DHT22;27789;50.840;4.386;2024-02-21T01:25:38;9.90;99.90
39677;DHT22;27789;50.840;4.386;2024-02-21T01:28:04;9.90;99.90
39677;DHT22;27789;50.840;4.386;2024-02-21T01:30:29;9.80;99.90
39677;DHT22;27789;50.840;4.386;2024-02-21T01:32:55;9.80;99.90
39677;DHT22;27789;50.840;4.386;2024-02-21T01:35:20;9.70;99.90
39677;DHT22;27789;50.840;4.386;2024-02-21T01:37:46;9.70;99.90
39677;DHT22;27789;50.840;4.386;2024-02-21T01:40:11;9.70;99.90
39677;DHT22;27789;50.840;4.386;2024-02-21T01:42:40;9.70;99.90
39677;DHT22;27789;50.840;4.386;2024-02-21T01:45:06;9.70;99.90
39677;DHT22;27789;50.840;4.386;2024-02-21T01:47:31;9.80;99.90
39677;DHT22;27789;50.840;4.386;2024-02-21T01:49:57;9.80;99.90
39677;DHT22;27789;50.840;4.386;2024-02-21T01:52:22;9.80;99.90
39677;DHT22;27789;50.840;4.386;2024-02-21T01:54:48;9.80;99.90
39677;DHT22;27789;50.840;4.386;2024-02-21T01:57:14;9.80;99.90
39677;DHT22;27789;50.840;4.386;2024-02-21T01:59:40;9.80;99.90
39677;DHT22;27789;50.840;4.386;2024-02-21T02:02:07;9.80;99.90
39677;DHT22;27789;50.840;4.386;2024-02-21T02:04:32;9.80;99.90
39677;DHT22;27789;50.840;4.386;2024-02-21T02:06:59;9.80;99.90
39677;DHT22;27789;50.840;4.386;2024-02-21T02:09:25;9.90;99.90
39677;DHT22;27789;50.840;4.386;2024-02-21T02:11:50;9.80;99.90
39677;DHT22;27789;50.840;4.386;2024-02-21T02:14:16;9.80;99.90
39677;DHT22;27789;50.840;4.386;2024-02-21T02:16:41;9.80;99.90
39677;DHT22;27789;50.840;4.386;2024-02-21T02:19:07;9.80;99.90
39677;DHT22;27789;50.840;4.386;2024-02-21T02:21:34;9.80;99.90
39677;DHT22;27789;50.840;4.386;2024-02-21T02:24:01;9.70;99.90
39677;DHT22;27789;50.840;4.386;2024-02-21T02:26:26;9.70;99.90
39677;DHT22;27789;50.840;4.386;2024-02-21T02:28:52;9.70;99.90
39677;DHT22;27789;50.840;4.386;2024-02-21T02:31:18;9.70;99.90
39677;DHT22;27789;50.840;4.386;2024-02-21T02:33:43;9.70;99.90
39677;DHT22;27789;50.840;4.386;2024-02-21T02:36:11;9.70;99.90
39677;DHT22;27789;50.840;4.386;2024-02-21T02:38:37;9.70;99.90
39677;DHT22;27789;50.840;4.386;2024-02-21T02:41:02;9.70;99.90
39677;DHT22;27789;50.840;4.386;2024-02-21T02:43:28;9.70;99.90
39677;DHT22;27789;50.840;4.386;2024-02-21T02:45:53;9.70;99.90
39677;DHT22;27789;50.840;4.386;2024-02-21T02:48:19;9.70;99.90
39677;DHT22;27789;50.840;4.386;2024-02-21T02:50:45;9.70;99.90
39677;DHT22;27789;50.840;4.386;2024-02-21T02:53:11;9.80;99.90
39677;DHT22;27789;50.840;4.386;2024-02-21T02:55:36;9.80;99.90
39677;DHT22;27789;50.840;4.386;2024-02-21T02:58:02;9.80;99.90
39677;DHT22;27789;50.840;4.386;2024-02-21T03:00:28;9.80;99.90
39677;DHT22;27789;50.840;4.386;2024-02-21T03:02:54;9.80;99.90
39677;DHT22;27789;50.840;4.386;2024-02-21T03:05:20;9.80;99.90
39677;DHT22;27789;50.840;4.386;2024-02-21T03:07:45;9.80;99.90
39677;DHT22;27789;50.840;4.386;2024-02-21T03:10:11;9.80;99.90
39677;DHT22;27789;50.840;4.386;2024-02-21T03:12:37;9.80;99.90
39677;DHT22;27789;50.840;4.386;2024-02-21T03:15:03;9.80;99.90
39677;DHT22;27789;50.840;4.386;2024-02-21T03:17:29;9.80;99.90
39677;DHT22;27789;50.840;4.386;2024-02-21T03:19:55;9.80;99.90
39677;DHT22;27789;50.840;4.386;2024-02-21T03:22:21;9.90;99.90
39677;DHT22;27789;50.840;4.386;2024-02-21T03:24:46;9.90;99.90
39677;DHT22;27789;50.840;4.386;2024-02-21T03:27:12;9.90;99.90
39677;DHT22;27789;50.840;4.386;2024-02-21T03:29:37;9.80;99.90
39677;DHT22;27789;50.840;4.386;2024-02-21T03:32:03;9.90;99.90
39677;DHT22;27789;50.840;4.386;2024-02-21T03:34:29;9.80;99.90
39677;DHT22;27789;50.840;4.386;2024-02-21T03:36:54;9.80;99.90
39677;DHT22;27789;50.840;4.386;2024-02-21T03:39:19;9.80;99.90
39677;DHT22;27789;50.840;4.386;2024-02-21T03:41:46;9.80;99.90
39677;DHT22;27789;50.840;4.386;2024-02-21T03:44:12;9.70;99.90
39677;DHT22;27789;50.840;4.386;2024-02-21T03:46:37;9.70;99.90
39677;DHT22;27789;50.840;4.386;2024-02-21T03:49:03;9.70;99.90
39677;DHT22;27789;50.840;4.386;2024-02-21T03:51:28;9.80;99.90
39677;DHT22;27789;50.840;4.386;2024-02-21T03:53:54;9.70;99.90
39677;DHT22;27789;50.840;4.386;2024-02-21T03:56:19;9.80;99.90
39677;DHT22;27789;50.840;4.386;2024-02-21T03:58:44;9.70;99.90
39677;DHT22;27789;50.840;4.386;2024-02-21T04:01:10;9.80;99.90
39677;DHT22;27789;50.840;4.386;2024-02-21T04:03:35;9.80;99.90
39677;DHT22;27789;50.840;4.386;2024-02-21T04:06:01;9.80;99.90
39677;DHT22;27789;50.840;4.386;2024-02-21T04:08:26;9.80;99.90
39677;DHT22;27789;50.840;4.386;2024-02-21T04:10:52;9.80;99.90
39677;DHT22;27789;50.840;4.386;2024-02-21T04:13:17;9.90;99.90
39677;DHT22;27789;50.840;4.386;2024-02-21T04:15:43;9.80;99.90
39677;DHT22;27789;50.840;4.386;2024-02-21T04:18:08;9.80;99.90
39677;DHT22;27789;50.840;4.386;2024-02-21T04:20:34;9.90;99.90
39677;DHT22;27789;50.840;4.386;2024-02-21T04:23:00;9.80;99.90
39677;DHT22;27789;50.840;4.386;2024-02-21T04:25:25;9.70;99.90
39677;DHT22;27789;50.840;4.386;2024-02-21T04:27:51;9.70;99.90
39677;DHT22;27789;50.840;4.386;2024-02-21T04:30:17;9.80;99.90
39677;DHT22;27789;50.840;4.386;2024-02-21T04:32:42;9.80;99.90
39677;DHT22;27789;50.840;4.386;2024-02-21T04:35:08;9.70;99.90
39677;DHT22;27789;50.840;4.386;2024-02-21T04:37:33;9.80;99.90
39677;DHT22;27789;50.840;4.386;2024-02-21T04:39:59;9.80;99.90
39677;DHT22;27789;50.840;4.386;2024-02-21T04:42:24;9.80;99.90
39677;DHT22;27789;50.840;4.386;2024-02-21T04:44:50;9.80;99.90
39677;DHT22;27789;50.840;4.386;2024-02-21T04:47:15;9.80;99.90
39677;DHT22;27789;50.840;4.386;2024-02-21T04:49:41;9.70;99.90
39677;DHT22;27789;50.840;4.386;2024-02-21T04:52:06;9.80;99.90
39677;DHT22;27789;50.840;4.386;2024-02-21T04:54:32;9.80;99.90
39677;DHT22;27789;50.840;4.386;2024-02-21T04:56:57;9.70;99.90
39677;DHT22;27789;50.840;4.386;2024-02-21T04:59:23;9.70;99.90
39677;DHT22;27789;50.840;4.386;2024-02-21T05:01:48;9.80;99.90
39677;DHT22;27789;50.840;4.386;2024-02-21T05:04:15;9.80;99.90
39677;DHT22;27789;50.840;4.386;2024-02-21T05:06:41;9.80;99.90
39677;DHT22;27789;50.840;4.386;2024-02-21T05:09:07;9.80;99.90
39677;DHT22;27789;50.840;4.386;2024-02-21T05:11:34;9.80;99.90
39677;DHT22;27789;50.840;4.386;2024-02-21T05:13:59;9.80;99.90
39677;DHT22;27789;50.840;4.386;2024-02-21T05:16:25;9.80;99.90
39677;DHT22;27789;50.840;4.386;2024-02-21T05:18:50;9.80;99.90
39677;DHT22;27789;50.840;4.386;2024-02-21T05:21:16;9.80;99.90
39677;DHT22;27789;50.840;4.386;2024-02-21T05:23:41;9.80;99.90
39677;DHT22;27789;50.840;4.386;2024-02-21T05:26:07;9.90;99.90
39677;DHT22;27789;50.840;4.386;2024-02-21T05:28:32;9.80;99.90
39677;DHT22;27789;50.840;4.386;2024-02-21T05:30:57;9.80;99.90
39677;DHT22;27789;50.840;4.386;2024-02-21T05:33:24;9.90;99.90
39677;DHT22;27789;50.840;4.386;2024-02-21T05:35:49;9.90;99.90
39677;DHT22;27789;50.840;4.386;2024-02-21T05:38:15;9.90;99.90
39677;DHT22;27789;50.840;4.386;2024-02-21T05:40:41;9.80;99.90
39677;DHT22;27789;50.840;4.386;2024-02-21T05:43:09;9.80;99.90
39677;DHT22;27789;50.840;4.386;2024-02-21T05:45:34;9.80;99.90
39677;DHT22;27789;50.840;4.386;2024-02-21T05:48:00;9.80;99.90
39677;DHT22;27789;50.840;4.386;2024-02-21T05:50:26;9.80;99.90
39677;DHT22;27789;50.840;4.386;2024-02-21T05:52:52;9.80;99.90
39677;DHT22;27789;50.840;4.386;2024-02-21T05:55:18;9.80;99.90
39677;DHT22;27789;50.840;4.386;2024-02-21T05:57:44;9.80;99.90
39677;DHT22;27789;50.840;4.386;2024-02-21T06:00:09;9.80;99.90
39677;DHT22;27789;50.840;4.386;2024-02-21T06:02:35;9.80;99.90
39677;DHT22;27789;50.840;4.386;2024-02-21T06:05:00;9.80;99.90
39677;DHT22;27789;50.840;4.386;2024-02-21T06:07:26;9.80;99.90
39677;DHT22;27789;50.840;4.386;2024-02-21T06:09:51;9.80;99.90
39677;DHT22;27789;50.840;4.386;2024-02-21T06:12:17;9.80;99.90
39677;DHT22;27789;50.840;4.386;2024-02-21T06:14:42;9.80;99.90
39677;DHT22;27789;50.840;4.386;2024-02-21T06:17:08;9.80;99.90
39677;DHT22;27789;50.840;4.386;2024-02-21T06:19:33;9.90;99.90
39677;DHT22;27789;50.840;4.386;2024-02-21T06:21:59;9.90;99.90
39677;DHT22;27789;50.840;4.386;2024-02-21T06:24:24;9.90;99.90
39677;DHT22;27789;50.840;4.386;2024-02-21T06:26:50;9.80;99.90
39677;DHT22;27789;50.840;4.386;2024-02-21T06:29:15;9.90;99.90
39677;DHT22;27789;50.840;4.386;2024-02-21T06:31:41;9.80;99.90
39677;DHT22;27789;50.840;4.386;2024-02-21T06:34:06;9.80;99.90
39677;DHT22;27789;50.840;4.386;2024-02-21T06:36:32;9.80;99.90
39677;DHT22;27789;50.840;4.386;2024-02-21T06:38:58;9.80;99.90
39677;DHT22;27789;50.840;4.386;2024-02-21T06:41:23;9.70;99.90
39677;DHT22;27789;50.840;4.386;2024-02-21T06:43:49;9.70;99.90
39677;DHT22;27789;50.840;4.386;2024-02-21T06:46:27;9.70;99.90
39677;DHT22;27789;50.840;4.386;2024-02-21T06:48:58;9.70;99.90
39677;DHT22;27789;50.840;4.386;2024-02-21T06:51:23;9.70;99.90
39677;DHT22;27789;50.840;4.386;2024-02-21T06:53:50;9.70;99.90
39677;DHT22;27789;50.840;4.386;2024-02-21T06:56:15;9.70;99.90
39677;DHT22;27789;50.840;4.386;2024-02-21T06:58:41;9.70;99.90
39677;DHT22;27789;50.840;4.386;2024-02-21T07:01:07;9.70;99.90
39677;DHT22;27789;50.840;4.386;2024-02-21T07:03:32;9.60;99.90
39677;DHT22;27789;50.840;4.386;2024-02-21T07:05:58;9.60;99.90
39677;DHT22;27789;50.840;4.386;2024-02-21T07:08:23;9.50;99.90
39677;DHT22;27789;50.840;4.386;2024-02-21T07:10:49;9.50;99.90
39677;DHT22;27789;50.840;4.386;2024-02-21T07:13:14;9.50;99.90
39677;DHT22;27789;50.840;4.386;2024-02-21T07:15:41;9.50;99.90
39677;DHT22;27789;50.840;4.386;2024-02-21T07:18:07;9.50;99.90
39677;DHT22;27789;50.840;4.386;2024-02-21T07:20:32;9.50;99.90
39677;DHT22;27789;50.840;4.386;2024-02-21T07:23:06;9.60;99.90
39677;DHT22;27789;50.840;4.386;2024-02-21T07:25:32;9.50;99.90
39677;DHT22;27789;50.840;4.386;2024-02-21T07:27:57;9.50;99.90
39677;DHT22;27789;50.840;4.386;2024-02-21T07:30:23;9.40;99.90
39677;DHT22;27789;50.840;4.386;2024-02-21T07:32:49;9.60;99.90
39677;DHT22;27789;50.840;4.386;2024-02-21T07:35:15;9.50;99.90
39677;DHT22;27789;50.840;4.386;2024-02-21T07:37:40;9.50;99.90
39677;DHT22;27789;50.840;4.386;2024-02-21T07:40:06;9.40;99.90
39677;DHT22;27789;50.840;4.386;2024-02-21T07:42:32;9.40;99.90
39677;DHT22;27789;50.840;4.386;2024-02-21T07:44:58;9.40;99.90
39677;DHT22;27789;50.840;4.386;2024-02-21T07:47:24;9.50;99.90
39677;DHT22;27789;50.840;4.386;2024-02-21T07:49:49;9.50;99.90
39677;DHT22;27789;50.840;4.386;2024-02-21T07:52:15;9.50;99.90
39677;DHT22;27789;50.840;4.386;2024-02-21T07:54:40;9.50;99.90
39677;DHT22;27789;50.840;4.386;2024-02-21T07:57:09;9.60;99.90
39677;DHT22;27789;50.840;4.386;2024-02-21T07:59:34;9.70;99.90
39677;DHT22;27789;50.840;4.386;2024-02-21T08:02:00;9.60;99.90
39677;DHT22;27789;50.840;4.386;2024-02-21T08:04:25;9.70;99.90
39677;DHT22;27789;50.840;4.386;2024-02-21T08:06:52;9.70;99.90
39677;DHT22;27789;50.840;4.386;2024-02-21T08:09:18;9.80;99.90
39677;DHT22;27789;50.840;4.386;2024-02-21T08:11:44;9.80;99.90
39677;DHT22;27789;50.840;4.386;2024-02-21T08:14:09;9.80;99.90
39677;DHT22;27789;50.840;4.386;2024-02-21T08:16:35;9.80;99.90
39677;DHT22;27789;50.840;4.386;2024-02-21T08:19:00;9.80;99.90
39677;DHT22;27789;50.840;4.386;2024-02-21T08:21:28;9.80;99.90
39677;DHT22;27789;50.840;4.386;2024-02-21T08:23:54;9.80;99.90
39677;DHT22;27789;50.840;4.386;2024-02-21T08:26:19;9.80;99.90
39677;DHT22;27789;50.840;4.386;2024-02-21T08:28:45;9.90;99.90
39677;DHT22;27789;50.840;4.386;2024-02-21T08:31:10;9.90;99.90
39677;DHT22;27789;50.840;4.386;2024-02-21T08:33:36;9.90;99.90
39677;DHT22;27789;50.840;4.386;2024-02-21T08:36:01;10.00;99.90
39677;DHT22;27789;50.840;4.386;2024-02-21T08:38:28;9.90;99.90
39677;DHT22;27789;50.840;4.386;2024-02-21T08:40:54;9.90;99.90
39677;DHT22;27789;50.840;4.386;2024-02-21T08:43:19;10.00;99.90
39677;DHT22;27789;50.840;4.386;2024-02-21T08:45:44;10.00;99.90
39677;DHT22;27789;50.840;4.386;2024-02-21T08:48:10;9.90;99.90
39677;DHT22;27789;50.840;4.386;2024-02-21T08:50:35;9.90;99.90
39677;DHT22;27789;50.840;4.386;2024-02-21T08:53:01;9.90;99.90
39677;DHT22;27789;50.840;4.386;2024-02-21T08:55:27;10.00;99.90
39677;DHT22;27789;50.840;4.386;2024-02-21T08:57:52;10.00;99.90
39677;DHT22;27789;50.840;4.386;2024-02-21T09:00:18;10.00;99.90
39677;DHT22;27789;50.840;4.386;2024-02-21T09:02:46;10.00;99.90
39677;DHT22;27789;50.840;4.386;2024-02-21T09:05:12;10.10;99.90
39677;DHT22;27789;50.840;4.386;2024-02-21T09:07:37;10.10;99.90
39677;DHT22;27789;50.840;4.386;2024-02-21T09:10:03;10.00;99.90
39677;DHT22;27789;50.840;4.386;2024-02-21T09:12:28;10.00;99.90
39677;DHT22;27789;50.840;4.386;2024-02-21T09:14:54;10.10;99.90
39677;DHT22;27789;50.840;4.386;2024-02-21T09:17:20;10.10;99.90
39677;DHT22;27789;50.840;4.386;2024-02-21T09:19:49;10.10;99.90
39677;DHT22;27789;50.840;4.386;2024-02-21T09:22:14;10.10;99.90
39677;DHT22;27789;50.840;4.386;2024-02-21T09:24:39;10.20;99.90
39677;DHT22;27789;50.840;4.386;2024-02-21T09:27:05;10.20;99.90
39677;DHT22;27789;50.840;4.386;2024-02-21T09:29:31;10.30;99.90
39677;DHT22;27789;50.840;4.386;2024-02-21T09:31:58;10.30;99.90
39677;DHT22;27789;50.840;4.386;2024-02-21T09:34:24;10.40;99.90
39677;DHT22;27789;50.840;4.386;2024-02-21T09:36:53;10.30;99.90
39677;DHT22;27789;50.840;4.386;2024-02-21T09:39:18;10.50;99.90
39677;DHT22;27789;50.840;4.386;2024-02-21T09:41:53;10.50;99.90
39677;DHT22;27789;50.840;4.386;2024-02-21T09:44:20;10.50;99.90
39677;DHT22;27789;50.840;4.386;2024-02-21T09:46:55;10.60;99.90
39677;DHT22;27789;50.840;4.386;2024-02-21T09:49:32;10.60;99.90
39677;DHT22;27789;50.840;4.386;2024-02-21T09:52:00;10.70;99.90
39677;DHT22;27789;50.840;4.386;2024-02-21T09:54:25;10.60;99.90
39677;DHT22;27789;50.840;4.386;2024-02-21T09:56:53;10.60;99.90
39677;DHT22;27789;50.840;4.386;2024-02-21T09:59:18;10.70;99.90
39677;DHT22;27789;50.840;4.386;2024-02-21T10:01:44;10.70;99.90
39677;DHT22;27789;50.840;4.386;2024-02-21T10:04:10;10.80;99.90
39677;DHT22;27789;50.840;4.386;2024-02-21T10:06:36;10.80;99.90
39677;DHT22;27789;50.840;4.386;2024-02-21T10:09:03;10.80;99.90
39677;DHT22;27789;50.840;4.386;2024-02-21T10:11:28;10.80;99.90
39677;DHT22;27789;50.840;4.386;2024-02-21T10:14:06;10.90;99.90
39677;DHT22;27789;50.840;4.386;2024-02-21T10:16:32;10.90;99.90
39677;DHT22;27789;50.840;4.386;2024-02-21T10:18:58;10.90;99.90
39677;DHT22;27789;50.840;4.386;2024-02-21T10:21:24;11.00;99.90
39677;DHT22;27789;50.840;4.386;2024-02-21T10:23:50;11.10;99.90
39677;DHT22;27789;50.840;4.386;2024-02-21T10:26:19;11.10;99.90
39677;DHT22;27789;50.840;4.386;2024-02-21T10:33:55;11.20;99.90
39677;DHT22;27789;50.840;4.386;2024-02-21T10:36:21;11.30;99.90
39677;DHT22;27789;50.840;4.386;2024-02-21T10:38:47;11.30;99.90
39677;DHT22;27789;50.840;4.386;2024-02-21T10:41:13;11.30;99.90
39677;DHT22;27789;50.840;4.386;2024-02-21T10:43:39;11.30;99.90
39677;DHT22;27789;50.840;4.386;2024-02-21T10:46:08;11.30;99.90
39677;DHT22;27789;50.840;4.386;2024-02-21T10:48:44;11.20;99.90
39677;DHT22;27789;50.840;4.386;2024-02-21T10:51:13;11.20;99.90
39677;DHT22;27789;50.840;4.386;2024-02-21T10:58:42;11.20;99.90
39677;DHT22;27789;50.840;4.386;2024-02-21T11:01:09;11.20;99.90
39677;DHT22;27789;50.840;4.386;2024-02-21T11:03:35;11.30;99.90
39677;DHT22;27789;50.840;4.386;2024-02-21T11:06:01;11.30;99.90
39677;DHT22;27789;50.840;4.386;2024-02-21T11:08:26;11.40;99.90
39677;DHT22;27789;50.840;4.386;2024-02-21T11:10:56;11.40;99.90
39677;DHT22;27789;50.840;4.386;2024-02-21T11:13:29;11.30;99.90
39677;DHT22;27789;50.840;4.386;2024-02-21T11:16:05;11.20;99.90
39677;DHT22;27789;50.840;4.386;2024-02-21T11:18:30;11.20;99.90
39677;DHT22;27789;50.840;4.386;2024-02-21T11:20:57;11.20;99.90
39677;DHT22;27789;50.840;4.386;2024-02-21T11:23:26;11.20;99.90
39677;DHT22;27789;50.840;4.386;2024-02-21T11:26:09;11.20;99.90
39677;DHT22;27789;50.840;4.386;2024-02-21T11:28:35;11.20;99.90
39677;DHT22;27789;50.840;4.386;2024-02-21T11:31:06;11.10;99.90
39677;DHT22;27789;50.840;4.386;2024-02-21T11:33:33;11.10;99.90
39677;DHT22;27789;50.840;4.386;2024-02-21T11:35:58;11.00;99.90
39677;DHT22;27789;50.840;4.386;2024-02-21T11:38:24;11.10;99.90
39677;DHT22;27789;50.840;4.386;2024-02-21T11:40:52;11.10;99.90
39677;DHT22;27789;50.840;4.386;2024-02-21T11:43:17;11.00;99.90
39677;DHT22;27789;50.840;4.386;2024-02-21T11:45:43;11.10;99.90
39677;DHT22;27789;50.840;4.386;2024-02-21T11:48:08;11.00;99.90
39677;DHT22;27789;50.840;4.386;2024-02-21T11:50:37;11.00;99.90
39677;DHT22;27789;50.840;4.386;2024-02-21T11:53:05;11.00;99.90
39677;DHT22;27789;50.840;4.386;2024-02-21T11:57:59;11.70;99.90
39677;DHT22;27789;50.840;4.386;2024-02-21T12:00:25;10.90;99.90
39677;DHT22;27789;50.840;4.386;2024-02-21T12:02:51;10.90;99.90
39677;DHT22;27789;50.840;4.386;2024-02-21T12:05:16;10.90;99.90
39677;DHT22;27789;50.840;4.386;2024-02-21T12:07:43;11.00;99.90
39677;DHT22;27789;50.840;4.386;2024-02-21T12:10:09;11.00;99.90
39677;DHT22;27789;50.840;4.386;2024-02-21T12:12:39;10.90;99.90
39677;DHT22;27789;50.840;4.386;2024-02-21T12:15:05;11.00;99.90
39677;DHT22;27789;50.840;4.386;2024-02-21T12:17:34;11.00;99.90
39677;DHT22;27789;50.840;4.386;2024-02-21T12:20:00;11.00;99.90
39677;DHT22;27789;50.840;4.386;2024-02-21T12:22:29;11.00;99.90
39677;DHT22;27789;50.840;4.386;2024-02-21T12:24:58;10.90;99.90
39677;DHT22;27789;50.840;4.386;2024-02-21T12:30:01;10.70;99.90
39677;DHT22;27789;50.840;4.386;2024-02-21T12:32:27;10.80;99.90
39677;DHT22;27789;50.840;4.386;2024-02-21T12:34:52;10.80;99.90
39677;DHT22;27789;50.840;4.386;2024-02-21T12:37:18;10.90;99.90
39677;DHT22;27789;50.840;4.386;2024-02-21T12:39:45;10.80;99.90
39677;DHT22;27789;50.840;4.386;2024-02-21T12:42:10;10.90;99.90
39677;DHT22;27789;50.840;4.386;2024-02-21T12:44:37;10.80;99.90
39677;DHT22;27789;50.840;4.386;2024-02-21T12:47:03;10.90;99.90
39677;DHT22;27789;50.840;4.386;2024-02-21T12:49:30;10.90;99.90
39677;DHT22;27789;50.840;4.386;2024-02-21T12:51:55;11.00;99.90
39677;DHT22;27789;50.840;4.386;2024-02-21T12:54:21;10.90;99.90
39677;DHT22;27789;50.840;4.386;2024-02-21T12:56:47;10.90;99.90
39677;DHT22;27789;50.840;4.386;2024-02-21T12:59:12;10.90;99.90
39677;DHT22;27789;50.840;4.386;2024-02-21T13:01:39;10.90;99.90
39677;DHT22;27789;50.840;4.386;2024-02-21T13:04:05;11.00;99.90
39677;DHT22;27789;50.840;4.386;2024-02-21T13:06:30;11.10;99.90
39677;DHT22;27789;50.840;4.386;2024-02-21T13:08:56;11.10;99.90
39677;DHT22;27789;50.840;4.386;2024-02-21T13:11:21;11.10;99.90
39677;DHT22;27789;50.840;4.386;2024-02-21T13:13:47;11.20;99.90
39677;DHT22;27789;50.840;4.386;2024-02-21T13:16:12;11.20;99.90
39677;DHT22;27789;50.840;4.386;2024-02-21T13:18:38;11.20;99.90
39677;DHT22;27789;50.840;4.386;2024-02-21T13:21:04;11.20;99.90
39677;DHT22;27789;50.840;4.386;2024-02-21T13:23:30;11.30;99.90
39677;DHT22;27789;50.840;4.386;2024-02-21T13:25:56;11.20;99.90
39677;DHT22;27789;50.840;4.386;2024-02-21T13:28:21;11.20;99.90
39677;DHT22;27789;50.840;4.386;2024-02-21T13:30:46;11.30;99.90
39677;DHT22;27789;50.840;4.386;2024-02-21T13:33:13;11.20;99.90
39677;DHT22;27789;50.840;4.386;2024-02-21T13:35:38;11.20;99.90
39677;DHT22;27789;50.840;4.386;2024-02-21T13:38:04;11.20;99.90
39677;DHT22;27789;50.840;4.386;2024-02-21T13:40:29;11.20;99.90
39677;DHT22;27789;50.840;4.386;2024-02-21T13:42:55;11.10;99.90
39677;DHT22;27789;50.840;4.386;2024-02-21T13:45:20;11.10;99.90
39677;DHT22;27789;50.840;4.386;2024-02-21T13:47:46;11.10;99.90
39677;DHT22;27789;50.840;4.386;2024-02-21T13:50:11;11.10;99.90
39677;DHT22;27789;50.840;4.386;2024-02-21T13:52:39;11.10;99.90
39677;DHT22;27789;50.840;4.386;2024-02-21T13:55:05;11.10;99.90
39677;DHT22;27789;50.840;4.386;2024-02-21T13:57:34;11.10;99.90
39677;DHT22;27789;50.840;4.386;2024-02-21T14:00:00;11.10;99.90
39677;DHT22;27789;50.840;4.386;2024-02-21T14:02:25;11.00;99.90
39677;DHT22;27789;50.840;4.386;2024-02-21T14:04:51;11.00;99.90
39677;DHT22;27789;50.840;4.386;2024-02-21T14:07:16;11.00;99.90
39677;DHT22;27789;50.840;4.386;2024-02-21T14:09:42;10.90;99.90
39677;DHT22;27789;50.840;4.386;2024-02-21T14:12:08;10.90;99.90
39677;DHT22;27789;50.840;4.386;2024-02-21T14:14:34;10.90;99.90
39677;DHT22;27789;50.840;4.386;2024-02-21T14:17:00;10.90;99.90
39677;DHT22;27789;50.840;4.386;2024-02-21T14:19:26;10.90;99.90
39677;DHT22;27789;50.840;4.386;2024-02-21T14:21:52;10.70;99.90
39677;DHT22;27789;50.840;4.386;2024-02-21T14:24:18;10.70;99.90
39677;DHT22;27789;50.840;4.386;2024-02-21T14:26:43;10.60;99.90
39677;DHT22;27789;50.840;4.386;2024-02-21T14:29:09;10.60;99.90
39677;DHT22;27789;50.840;4.386;2024-02-21T14:31:34;10.60;99.90
39677;DHT22;27789;50.840;4.386;2024-02-21T14:34:00;10.50;99.90
39677;DHT22;27789;50.840;4.386;2024-02-21T14:36:27;10.50;99.90
39677;DHT22;27789;50.840;4.386;2024-02-21T14:38:52;10.50;99.90
39677;DHT22;27789;50.840;4.386;2024-02-21T14:41:18;10.40;99.90
39677;DHT22;27789;50.840;4.386;2024-02-21T14:43:44;10.40;99.90
39677;DHT22;27789;50.840;4.386;2024-02-21T14:46:10;10.40;99.90
39677;DHT22;27789;50.840;4.386;2024-02-21T14:48:37;10.40;99.90
39677;DHT22;27789;50.840;4.386;2024-02-21T14:51:03;10.40;99.90
39677;DHT22;27789;50.840;4.386;2024-02-21T14:53:29;10.40;99.90
39677;DHT22;27789;50.840;4.386;2024-02-21T14:55:54;10.30;99.90
39677;DHT22;27789;50.840;4.386;2024-02-21T14:58:20;10.30;99.90
39677;DHT22;27789;50.840;4.386;2024-02-21T15:00:45;10.40;99.90
39677;DHT22;27789;50.840;4.386;2024-02-21T15:03:12;10.40;99.90
39677;DHT22;27789;50.840;4.386;2024-02-21T15:05:40;10.40;99.90
39677;DHT22;27789;50.840;4.386;2024-02-21T15:08:06;10.30;99.90
39677;DHT22;27789;50.840;4.386;2024-02-21T15:10:33;10.30;99.90
39677;DHT22;27789;50.840;4.386;2024-02-21T15:12:59;10.20;99.90
39677;DHT22;27789;50.840;4.386;2024-02-21T15:15:24;10.30;99.90
39677;DHT22;27789;50.840;4.386;2024-02-21T15:17:50;10.40;99.90
39677;DHT22;27789;50.840;4.386;2024-02-21T15:20:15;10.40;99.90
39677;DHT22;27789;50.840;4.386;2024-02-21T15:22:41;10.40;99.90
39677;DHT22;27789;50.840;4.386;2024-02-21T15:25:07;10.40;99.90
39677;DHT22;27789;50.840;4.386;2024-02-21T15:27:38;10.30;99.90
39677;DHT22;27789;50.840;4.386;2024-02-21T15:30:04;10.30;99.90
39677;DHT22;27789;50.840;4.386;2024-02-21T15:32:30;10.30;99.90
39677;DHT22;27789;50.840;4.386;2024-02-21T15:34:55;10.30;99.90
39677;DHT22;27789;50.840;4.386;2024-02-21T15:37:21;10.30;99.90
39677;DHT22;27789;50.840;4.386;2024-02-21T15:39:46;10.20;99.90
39677;DHT22;27789;50.840;4.386;2024-02-21T15:42:13;10.20;99.90
39677;DHT22;27789;50.840;4.386;2024-02-21T15:44:38;10.20;99.90